createdAt,value
2022-12-20T00:02:20.588Z,15.80
2022-12-20T00:07:22.585Z,15.80
2022-12-20T00:12:29.816Z,12.30
2022-12-20T00:17:31.712Z,7.90
2022-12-20T00:22:33.610Z,15.30
2022-12-20T00:27:35.450Z,16.00
2022-12-20T00:32:38.543Z,12.90
2022-12-20T00:37:40.517Z,13.90
2022-12-20T00:42:42.278Z,13.50
2022-12-20T00:47:44.059Z,16.30
2022-12-20T00:52:45.814Z,14.40
2022-12-20T00:57:47.667Z,16.80
2022-12-20T01:02:49.566Z,14.20
2022-12-20T01:07:51.525Z,14.80
2022-12-20T01:12:54.158Z,17.40
2022-12-20T01:17:56.073Z,16.90
2022-12-20T01:22:57.843Z,14.10
2022-12-20T01:27:59.607Z,15.70
2022-12-20T01:33:01.479Z,15.10
2022-12-20T01:38:03.452Z,16.00
2022-12-20T01:43:05.251Z,13.40
2022-12-20T01:48:07.632Z,12.90
2022-12-20T01:53:10.320Z,13.90
2022-12-20T01:58:14.501Z,13.90
2022-12-20T02:03:16.966Z,10.60
2022-12-20T02:08:20.338Z,13.40
2022-12-20T02:13:30.353Z,12.40
2022-12-20T02:18:43.228Z,14.20
2022-12-20T02:24:03.661Z,8.00
2022-12-20T02:29:27.697Z,11.50
2022-12-20T02:34:33.900Z,12.40
2022-12-20T02:39:39.267Z,10.20
2022-12-20T02:45:10.246Z,12.60
2022-12-20T02:50:12.990Z,12.10
2022-12-20T02:55:16.284Z,13.50
2022-12-20T03:00:21.589Z,12.60
2022-12-20T03:05:25.709Z,12.50
2022-12-20T03:10:28.275Z,14.50
2022-12-20T03:15:30.227Z,13.80
2022-12-20T03:20:33.372Z,12.20
2022-12-20T03:25:35.181Z,13.80
2022-12-20T03:30:37.916Z,13.70
2022-12-20T03:35:39.976Z,15.50
2022-12-20T03:40:42.971Z,15.70
2022-12-20T03:45:46.875Z,15.30
2022-12-20T03:50:49.235Z,14.20
2022-12-20T03:55:51.081Z,14.50
2022-12-20T04:00:53.332Z,16.90
2022-12-20T04:06:16.191Z,15.90
2022-12-20T04:11:18.478Z,17.40
2022-12-20T04:16:29.852Z,15.40
2022-12-20T04:21:34.435Z,18.90
2022-12-20T04:26:36.624Z,18.50
2022-12-20T04:31:39.494Z,17.10
2022-12-20T04:36:41.625Z,11.90
2022-12-20T04:41:49.096Z,18.40
2022-12-20T04:46:50.973Z,14.50
2022-12-20T04:51:53.404Z,15.40
2022-12-20T04:56:55.958Z,14.00
2022-12-20T05:01:58.472Z,16.70
2022-12-20T05:07:20.566Z,11.80
2022-12-20T05:12:26.371Z,14.80
2022-12-20T05:17:31.756Z,12.50
2022-12-20T05:22:53.887Z,13.10
2022-12-20T05:27:56.098Z,18.90
2022-12-20T05:32:59.433Z,17.80
2022-12-20T05:38:02.830Z,15.70
2022-12-20T05:43:06.966Z,19.50
2022-12-20T05:48:17.320Z,11.20
2022-12-20T05:53:19.689Z,20.10
2022-12-20T05:58:24.606Z,18.10
2022-12-20T06:03:33.107Z,18.80
2022-12-20T06:08:37.232Z,20.90
2022-12-20T06:13:43.170Z,23.20
2022-12-20T06:18:45.286Z,15.00
2022-12-20T06:23:48.486Z,13.30
2022-12-20T06:28:57.150Z,10.70
2022-12-20T06:34:25.304Z,19.80
2022-12-20T06:39:27.591Z,23.20
2022-12-20T06:44:49.042Z,19.20
2022-12-20T06:49:51.005Z,17.20
2022-12-20T06:54:57.071Z,21.90
2022-12-20T06:59:59.639Z,18.40
2022-12-20T07:05:01.618Z,19.30
2022-12-20T07:10:04.041Z,18.90
2022-12-20T07:15:06.147Z,20.50
2022-12-20T07:20:13.255Z,20.70
2022-12-20T07:25:16.174Z,17.70
2022-12-20T07:30:19.355Z,15.40
2022-12-20T07:35:21.151Z,20.00
2022-12-20T07:40:22.995Z,20.60
2022-12-20T07:45:24.897Z,20.00
2022-12-20T07:50:28.688Z,20.90
2022-12-20T07:55:31.347Z,16.80
2022-12-20T08:00:33.697Z,17.20
2022-12-20T08:05:41.070Z,24.10
2022-12-20T08:10:43.674Z,17.10
2022-12-20T08:15:45.472Z,18.80
2022-12-20T08:20:47.958Z,18.50
2022-12-20T08:25:50.219Z,21.30
2022-12-20T08:30:52.294Z,21.80
2022-12-20T08:35:59.302Z,16.10
2022-12-20T08:41:08.004Z,21.60
2022-12-20T08:46:12.192Z,14.20
2022-12-20T08:51:14.165Z,14.90
2022-12-20T08:56:17.870Z,14.40
2022-12-20T09:01:21.908Z,15.10
2022-12-20T09:06:24.068Z,14.00
2022-12-20T09:11:26.921Z,12.80
2022-12-20T09:16:32.747Z,16.20
2022-12-20T09:21:35.302Z,17.00
2022-12-20T09:26:37.260Z,18.00
2022-12-20T09:31:39.107Z,19.50
2022-12-20T09:36:40.869Z,18.00
2022-12-20T09:41:44.360Z,18.10
2022-12-20T09:46:55.167Z,18.10
2022-12-20T09:52:21.705Z,16.80
2022-12-20T09:57:34.488Z,20.70
2022-12-20T10:02:58.353Z,18.60
2022-12-20T10:08:15.706Z,17.80
2022-12-20T10:13:48.604Z,19.70
2022-12-20T10:19:13.738Z,18.40
2022-12-20T10:24:21.508Z,17.30
2022-12-20T10:29:23.884Z,18.00
2022-12-20T10:34:27.838Z,16.30
2022-12-20T10:39:43.879Z,15.10
2022-12-20T10:44:45.691Z,17.00
2022-12-20T10:49:47.398Z,19.00
2022-12-20T10:54:49.191Z,20.50
2022-12-20T11:00:05.595Z,18.30
2022-12-20T11:05:14.543Z,16.20
2022-12-20T11:10:28.996Z,18.10
2022-12-20T11:15:34.898Z,13.80
2022-12-20T11:20:58.667Z,12.60
2022-12-20T11:26:28.440Z,18.00
2022-12-20T11:32:00.713Z,15.10
2022-12-20T11:37:14.375Z,17.00
2022-12-20T11:42:31.509Z,18.10
2022-12-20T11:48:01.177Z,22.80
2022-12-20T11:53:20.586Z,19.10
2022-12-20T11:58:41.403Z,18.10
2022-12-20T12:04:18.286Z,15.30
2022-12-20T12:09:30.609Z,17.10
2022-12-20T12:14:52.572Z,17.60
2022-12-20T12:20:01.367Z,16.20
2022-12-20T12:25:12.186Z,20.00
2022-12-20T12:30:16.373Z,18.70
2022-12-20T12:35:52.614Z,16.60
2022-12-20T12:41:03.779Z,20.60
2022-12-20T12:46:14.657Z,19.10
2022-12-20T12:51:24.081Z,18.70
2022-12-20T12:56:43.144Z,15.40
2022-12-20T13:02:16.213Z,18.50
2022-12-20T13:07:28.823Z,18.20
2022-12-20T13:12:36.505Z,18.40
2022-12-20T13:17:45.332Z,19.60
2022-12-20T13:23:05.562Z,17.90
2022-12-20T13:28:19.682Z,17.20
2022-12-20T13:33:42.050Z,16.60
2022-12-20T13:38:44.907Z,18.40
2022-12-20T13:43:49.678Z,30.50
2022-12-20T13:49:00.941Z,23.00
2022-12-20T13:54:05.622Z,18.40
2022-12-20T13:59:31.106Z,20.70
2022-12-20T14:04:42.885Z,18.10
2022-12-20T14:09:51.989Z,20.90
2022-12-20T14:14:54.467Z,20.00
2022-12-20T14:20:17.309Z,22.20
2022-12-20T14:25:28.070Z,22.20
2022-12-20T14:30:32.635Z,20.20
2022-12-20T14:35:34.484Z,20.00
2022-12-20T14:40:42.610Z,20.20
2022-12-20T14:45:44.472Z,20.80
2022-12-20T14:50:53.761Z,21.90
2022-12-20T14:55:56.277Z,19.40
2022-12-20T15:01:22.224Z,23.90
2022-12-20T15:06:34.859Z,22.20
2022-12-20T15:11:38.139Z,19.20
2022-12-20T15:16:47.781Z,20.90
2022-12-20T15:21:50.589Z,20.10
2022-12-20T15:26:52.463Z,24.80
2022-12-20T15:32:21.272Z,21.50
2022-12-20T15:37:22.993Z,19.70
2022-12-20T15:42:24.898Z,22.40
2022-12-20T15:47:26.628Z,21.40
2022-12-20T15:52:28.415Z,22.10
2022-12-20T15:57:30.939Z,18.60
2022-12-20T16:02:33.492Z,22.30
2022-12-20T16:07:35.639Z,26.40
2022-12-20T16:12:37.426Z,24.50
2022-12-20T16:17:39.263Z,23.50
2022-12-20T16:22:41.148Z,17.90
2022-12-20T16:27:42.861Z,25.50
2022-12-20T16:32:44.577Z,22.10
2022-12-20T16:37:46.281Z,22.10
2022-12-20T16:42:47.981Z,22.30
2022-12-20T16:47:50.095Z,21.80
2022-12-20T16:52:52.309Z,22.70
2022-12-20T16:57:54.397Z,19.70
2022-12-20T17:02:56.881Z,21.20
2022-12-20T17:07:59.127Z,22.40
2022-12-20T17:13:01.998Z,24.00
2022-12-20T17:18:03.919Z,24.60
2022-12-20T17:23:08.775Z,26.70
2022-12-20T17:28:10.525Z,22.40
2022-12-20T17:33:15.410Z,22.10
2022-12-20T17:38:17.124Z,25.60
2022-12-20T17:43:18.809Z,26.60
2022-12-20T17:48:20.593Z,22.00
2022-12-20T17:53:22.269Z,22.80
2022-12-20T17:58:24.026Z,22.80
2022-12-20T18:04:03.762Z,24.60
2022-12-20T18:08:52.321Z,23.00
2022-12-20T18:13:57.608Z,25.00
2022-12-20T18:19:00.912Z,20.10
2022-12-20T18:24:02.636Z,22.40
2022-12-20T18:29:04.418Z,27.80
2022-12-20T18:34:07.078Z,21.40
2022-12-20T18:39:12.618Z,24.50
2022-12-20T18:44:14.369Z,20.90
2022-12-20T18:49:16.123Z,23.20
2022-12-20T18:54:18.133Z,20.80
2022-12-20T18:59:21.212Z,25.60
2022-12-20T19:04:25.148Z,23.80
2022-12-20T19:09:27.184Z,23.50
2022-12-20T19:14:31.036Z,25.50
2022-12-20T19:19:32.865Z,22.30
2022-12-20T19:24:34.603Z,20.30
2022-12-20T19:29:36.324Z,17.40
2022-12-20T19:34:38.166Z,18.20
2022-12-20T19:39:39.821Z,20.80
2022-12-20T19:44:41.598Z,19.90
2022-12-20T19:49:43.321Z,25.10
2022-12-20T19:54:45.107Z,24.50
2022-12-20T19:59:50.880Z,21.20
2022-12-20T20:04:57.272Z,21.40
2022-12-20T20:09:59.102Z,22.70
2022-12-20T20:15:01.098Z,25.20
2022-12-20T20:20:03.070Z,21.70
2022-12-20T20:25:05.407Z,20.20
2022-12-20T20:30:07.888Z,21.30
2022-12-20T20:35:11.066Z,20.60
2022-12-20T20:40:14.278Z,21.60
2022-12-20T20:45:16.991Z,19.90
2022-12-20T20:50:18.751Z,20.40
2022-12-20T20:55:20.449Z,20.90
2022-12-20T21:00:22.412Z,20.70
2022-12-20T21:10:46.197Z,17.80
2022-12-20T21:15:48.139Z,22.20
2022-12-20T21:20:50.253Z,23.70
2022-12-20T21:25:58.575Z,17.90
2022-12-20T21:31:02.453Z,19.70
2022-12-20T21:36:06.928Z,22.80
2022-12-20T21:41:12.387Z,24.00
2022-12-20T21:46:14.271Z,23.90
2022-12-20T21:51:20.715Z,19.40
2022-12-20T21:56:24.226Z,20.10
2022-12-20T22:01:28.012Z,16.60
2022-12-20T22:06:31.586Z,21.10
2022-12-20T22:11:34.680Z,21.60
2022-12-20T22:16:37.789Z,22.20
2022-12-20T22:21:39.731Z,23.30
2022-12-20T22:26:41.712Z,23.70
2022-12-20T22:31:43.538Z,22.30
2022-12-20T22:36:45.346Z,18.90
2022-12-20T22:41:47.045Z,22.50
2022-12-20T22:46:48.833Z,18.20
2022-12-20T22:52:05.927Z,17.10
2022-12-20T22:57:10.398Z,20.80
2022-12-20T23:02:12.332Z,18.40
2022-12-20T23:07:14.434Z,21.90
2022-12-20T23:12:35.135Z,19.10
2022-12-20T23:17:36.840Z,21.30
2022-12-20T23:22:38.578Z,21.70
2022-12-20T23:27:43.015Z,17.30
2022-12-20T23:32:44.957Z,22.40
2022-12-20T23:37:47.226Z,26.20
2022-12-20T23:42:48.973Z,24.40
2022-12-20T23:47:50.739Z,20.70
2022-12-20T23:52:52.462Z,24.90
2022-12-20T23:57:54.231Z,18.40
